Oakwood, Texas
Current Conditions -  °F | °C
As of 12:55 AM on Monday 24 Nov 2014 (Local Time) from KPSN Reporting Station
Clear Clear  
Wind Chill: 51°   Ceiling: Unl
Heat Index: 51°   Visibility: 10mi
Dew Point: 42°   Wind: 6mph
Humidity: 70%   Direction: 300°WNW
Pressure: 29.83"   Gusts: NA
Location:  31.58°N, 95.85°W
Report Text: KPSN 240655Z AUTO 30005KT 10SM CLR 10/05 A2983 RMK AO2 T01070054
Loading
Personal Weather Stations






























Interactive Weather Map New forecast layout! Learn more

10-Day Weather Forecast

Advertisements
Track Severe Weather on mobile